1st December 2019 | Otago, New Zealand

The Pioneer fuelled by Nutri-Grain (2019)

Stage 4 - Bannockburn to Bannockburn Teams

Pos Team Name Team Time Points Category (Pos)
1 (#128) ONYA BIKE NORTH OTAGO 02:19:26 3 Open Men (1)
2 (#110) GIANT AUSTRALIA OFF-ROAD TEAM 02:23:10 7 Open Men (2)
3 (#148) WINGER HAMILTON 02:23:13 11 Open Men (3)
4 (#151) MARATHONMTB.COM 02:27:35 15 Open Men (4)
5 (#119) MAAP SHIMANO 02:27:41 19 Open Men (5)
6 (#108) CYCLIST MAGAZINE 02:33:31 23 Open Men (6)
7 (#106) CYCLE WORLD RACING 02:35:57 29 Open Men (7)
8 (#126) MCMILLAN CIVIL 02:35:59 33 Open Men (8)
9 (#133) SPECIALISED STRUCTURES 02:38:08 37 Open Men (9)
10 (#136) GREENMONKEY 02:39:34 41 Open Men (10)
11 (#336) TEAM JOJO 02:40:17 45 Mixed (1)
12 (#410) CYCLE OBSESSION 02:41:36 49 Masters Men (1)
13 (#440) OFF THE CHAIN 02:41:37 53 Masters Men (2)
14 (#333) SRAM MTOSS 02:41:43 57 Mixed (2)
15 (#121) MORTGAGE ME NZ CYCLING PROJECT 02:42:37 61 Open Men (11)
16 (#413) DAIKIN THERMAL SOLUTIONS 02:47:40 65 Masters Men (3)
17 (#102) BLUBLOKES 02:47:54 69 Open Men (12)
18 (#134) SQUAREONE PHYSIO 02:48:09 73 Open Men (13)
19 (#429) OPTIMAL PERFORMANCE 02:48:51 77 Masters Men (4)
20 (#630) TERREACTIVE IT SECURITY 02:50:28 81 Grand Masters Men (1)
21 (#203) STONEWOOD HOMES 02:51:45 85 Open Women (1)
22 (#323) SHIMANO PUSHYS CANNONDALE 02:52:38 91 Mixed (3)
23 (#105) CIRCUIT ASPHALT 02:52:39 91 Open Men (14)
24 (#412) CYCLINGTIPS.COM 02:52:39 97 Masters Men (5)
25 (#633) THE HUB CYCLE CENTRE - RUNNING OUT OF SUMMERS 02:52:40 101 Grand Masters Men (2)
26 (#608) CYCLEWAYS 02:55:56 106 Grand Masters Men (3)
27 (#638) VELO WORKSHOP 02:55:56 108 Grand Masters Men (4)
28 (#411) STICKY BOTTLE 02:56:10 113 Masters Men (6)
29 (#118) LES MORREAUX 02:56:51 117 Open Men (15)
30 (#326) TEAM NEW WORLD-PIVOT 02:57:12 121 Mixed (4)
31 (#137) TEAM ELEVATE 02:57:13 125 Open Men (16)
32 (#436) SHOW NO WEAKNESS 02:57:49 129 Masters Men (7)
33 (#305) BIKETO-YUXI TEAM 02:58:47 133 Mixed (5)
34 (#124) NEW WORLD ST MARTINS 02:59:21 137 Open Men (17)
35 (#127) ONE HIT WONDERS 02:59:28 141 Open Men (18)
36 (#437) SILVERSKYCYCLE 03:00:34 145 Masters Men (8)
37 (#317) MTBVL ADVENTURES 03:00:46 149 Mixed (6)
38 (#116) LANKY N RANKY 03:03:36 153 Open Men (19)
39 (#130) PURE SPORTS NUTRITION 03:04:42 157 Open Men (20)
40 (#335) GREENMONKEY/PIVOT CYCLES 03:05:15 161 Mixed (7)
41 (#434) SHAUN & MATT - AKA SHAT 03:05:46 165 Masters Men (9)
42 (#444) TEAM SMIDDY 03:06:00 169 Masters Men (10)
43 (#620) RIDETECHNICS 03:06:13 173 Grand Masters Men (5)
44 (#139) TEAM VELO-REICHMUTH.CH 03:06:41 177 Open Men (21)
45 (#123) NBRCC 03:07:57 181 Open Men (22)
46 (#111) GOOI MIELIES 03:09:19 187 Open Men (23)
47 (#107) CYCLETIME HAMILTON 03:10:31 191 Open Men (24)
48 (#310) EQUIPE IRIS-BOB CYCLO 03:11:07 195 Mixed (8)
49 (#141) TEDS & FLASH 03:13:14 201 Open Men (25)
50 (#428) OLD BOYS OUT OF CONTROL 03:14:07 205 Masters Men (11)
51 (#143) THE HANDLEBAR DADS - MOVEMBER NZ 03:15:44 209 Open Men (26)
52 (#147) WRBIKES 03:16:04 213 Open Men (27)
53 (#449) THE VIKINGS 03:17:10 217 Masters Men (12)
54 (#452) VEGAS BOYS 03:17:10 221 Masters Men (13)
55 (#104) CALCONASSOS IBIZA 2 03:18:37 227 Open Men (28)
56 (#430) OUT OF OFFICE 03:18:40 231 Masters Men (14)
57 (#146) TWO WATTS 03:18:43 235 Open Men (29)
58 (#202) NEW WORLD ST MARTINS WOMEN 03:18:54 239 Open Women (2)
59 (#320) REMARKABLE PHYSIOS 03:18:58 243 Mixed (9)
60 (#149) THE PIONEERS 03:18:59 247 Open Men (30)
61 (#138) TEAM PINNACLE 03:19:38 251 Open Men (31)
62 (#640) LES CROQUES MONSIEURS 03:20:38 255 Grand Masters Men (6)
63 (#422) KEA - EAGLE 03:21:05 259 Masters Men (15)
64 (#454) WAZZA DUO 03:21:11 263 Masters Men (16)
65 (#503) EARNSCLEUGH EXPRESS 03:21:25 267 Masters Women (1)
66 (#150) TEAM GREFIN 03:23:07 271 Open Men (32)
67 (#405) BLACKYARD RACING - STRAYA 03:24:13 275 Masters Men (17)
68 (#424) MEOGP RACING TEAM 03:24:15 279 Masters Men (18)
69 (#114) KIESER AUSTRALIA 03:24:39 283 Open Men (33)
70 (#601) 1E SIBA MTB TEAM 03:24:53 291 Grand Masters Men (7)
71 (#607) CRY N' FEAR 03:25:26 295 Grand Masters Men (8)
72 (#314) LIV AND JOE 03:26:09 299 Mixed (10)
73 (#201) TIKI WINE & VINEYARDS 03:28:03 303 Open Women (3)
74 (#125) NOT HERE TO F**K SPIDERS 03:30:53 307 Open Men (34)
75 (#641) TWO OLD FOR THIS MATE 03:31:32 311 Grand Masters Men (9)
76 (#443) TEAM RACK 'N' STACK 03:32:47 316 Masters Men (19)
77 (#140) TEAM VICTORY VETS 03:32:50 318 Open Men (35)
78 (#301) AKSA TEAM 03:33:09 323 Mixed (11)
79 (#618) RANGI ROCKETS 03:33:23 327 Grand Masters Men (10)
80 (#122) GALILEO RISK 03:33:34 331 Open Men (36)
81 (#328) THE FREE WHEELERS 03:34:19 335 Mixed (12)
82 (#621) SEEDED WHEELS 03:34:24 339 Grand Masters Men (11)
83 (#315) LYNX REAL ESTATE 03:35:14 345 Mixed (13)
84 (#447) THE BENDS 03:35:21 349 Masters Men (20)
85 (#302) ALREADY KNOW BETTER! 03:37:52 357 Mixed (14)
86 (#135) TARANAKI HARDTAILS 03:39:05 361 Open Men (37)
87 (#450) THE WOLFPACK 03:39:29 367 Masters Men (21)
88 (#507) OUTLAW SISTERS 03:40:27 371 Masters Women (2)
89 (#101) FLEET CYCLES 03:40:39 375 Open Men (38)
90 (#433) RPM 03:43:54 381 Masters Men (22)
91 (#604) 86 400 03:44:13 385 Grand Masters Men (12)
92 (#318) PADDY & CO 03:44:36 389 Mixed (15)
93 (#316) MOUNTAIN SNAILS 03:45:15 393 Mixed (16)
94 (#303) AN EPIC COMBO 03:47:30 397 Mixed (17)
95 (#313) KISIELS@50 03:47:36 401 Mixed (18)
96 (#603) 2DEGREES 03:49:04 407 Grand Masters Men (13)
97 (#407) CALCONASSOS IBIZA 3 03:49:58 411 Masters Men (23)
98 (#610) DEUSA 03:50:19 415 Grand Masters Men (14)
99 (#637) TWO SOUTHERN MEN 03:51:18 419 Grand Masters Men (15)
100 (#446) THE 2 AMIGOS 03:52:30 423 Masters Men (24)
101 (#402) 4 STRONG LEGS 03:54:24 427 Masters Men (25)
102 (#629) TEAM: NUTRI-GRAIN 03:55:07 431 Grand Masters Men (16)
103 (#330) CYCLE OBSESSION - MIXED 03:55:11 435 Mixed (19)
104 (#456) ZOOMEN 03:55:36 439 Masters Men (26)
105 (#508) TEAM CYCLEWAYS 03:56:24 445 Masters Women (3)
106 (#609) DEFEND FIRE PROTECTION 03:56:26 445 Mixed (20)
107 (#417) HILLBILLYS 03:57:17 455 Masters Men (27)
108 (#117) LEGEND CHX 03:58:50 459 Open Men (39)
109 (#420) INOSYM 03:58:58 463 Masters Men (28)
110 (#319) RED ALERT 03:59:11 467 Mixed (21)
111 (#502) DEFEND FIRE PROTECTION GIRLS ON FIRE 04:01:20 471 Masters Women (4)
112 (#451) TWO WEAK LINKS 04:02:26 475 Masters Men (29)
113 (#401) 2 BROKE BLOKES 04:02:31 479 Masters Men (30)
114 (#419) ICE 04:03:37 483 Masters Men (31)
115 (#438) SINOGULF 04:04:02 487 Masters Men (32)
116 (#406) BOTH SIDES OF THE DITCH 04:06:08 493 Masters Men (33)
117 (#113) KELLYS CAFE & BAR 04:06:46 497 Open Men (40)
118 (#623) SO FAR BUT SO CLOSE 04:07:00 501 Grand Masters Men (17)
119 (#505) I SHOP NEW WORLD 04:07:49 505 Masters Women (5)
120 (#129) PROJECT THREE SIXTY LIMITED 04:07:55 509 Open Men (41)
121 (#612) EPICURE 04:08:16 513 Grand Masters Men (18)
122 (#321) SERPANTIN 04:08:26 517 Mixed (22)
123 (#606) AXIS HOUSE CYCLE 4 CANSA 04:10:58 521 Grand Masters Men (19)
124 (#329) THE WHEELS 04:12:14 525 Mixed (23)
125 (#628) TEAM X 04:12:25 529 Grand Masters Men (20)
126 (#441) TEAM DANÆS AHON 04:12:30 533 Masters Men (34)
127 (#445) TERRA FIRMA SKODA 04:12:56 537 Masters Men (35)
128 (#408) CALSONASSOS IBIZA 1 04:13:55 541 Masters Men (36)
129 (#625) TEAM BIG RIDE 04:14:03 545 Grand Masters Men (21)
130 (#501) CABLE LOGGING GERALDINE NZ 04:14:07 549 Masters Women (6)
131 (#602) 2 AUSSIE PADDLERS 04:14:13 553 Grand Masters Men (22)
132 (#626) TEAM DNR 04:14:37 557 Grand Masters Men (23)
133 (#306) BLACKYARD RACING - SI 04:16:17 561 Mixed (24)
134 (#145) THE OTHER GUYS 04:17:37 567 Open Men (42)
135 (#605) AGAINST ALL ODDS 04:18:22 571 Grand Masters Men (24)
136 (#325) TEAM EDGAR 04:20:25 577 Mixed (25)
137 (#624) START SLOW 04:22:40 581 Grand Masters Men (25)
138 (#426) NEW WORLD KUMEU 04:25:17 587 Masters Men (37)
139 (#639) WELL VENTECH 04:25:22 591 Grand Masters Men (26)
140 (#622) SMILES FOR THE PACIFIC 04:26:42 595 Grand Masters Men (27)
141 (#635) TRYING AGAIN 04:28:11 599 Grand Masters Men (28)
142 (#416) GLOBALID 04:29:22 603 Masters Men (38)
143 (#304) JACQUES & GEORGIA 04:29:46 609 Mixed (26)
144 (#423) LUP & HONG 04:30:33 613 Masters Men (39)
145 (#455) WINE DINE FINISH LINE 04:30:35 617 Masters Men (40)
146 (#409) CALSONASSOS IBIZA 4 04:31:02 621 Masters Men (41)
147 (#324) SUNKONGS 04:32:41 625 Mixed (27)
148 (#131) RATHOLE RACING 04:33:36 630 Open Men (43)
149 (#617) OH REALLY 04:36:33 635 Grand Masters Men (29)
150 (#307) BLACKYARD RACING NI 04:39:33 641 Mixed (28)
151 (#627) TEAM MAMMOTH 04:42:25 504 Grand Masters Men (30)
152 (#332) WESTRA-CHOO 04:43:13 647 Mixed (29)
153 (#308) COLORADO CRUISERS 05:02:30 657 Mixed (30)
- (#103) BLUE CYCLES Open Men
- (#414) DUSTYDAZE WHANGAREI Masters Men
- (#615) JAM Grand Masters Men
- (#115) LA PLATA PEDALERS Open Men
- (#418) I CLIMB WELL FOR MY WEIGHT Masters Men
- (#504) GREG PARRÆS GIRL TORQUE Masters Women
- (#613) GIORGI EXCLUSIVE HOMES Grand Masters Men
- (#614) GIVE IT HORNS Grand Masters Men
- (#311) FASTLANE 2 Mixed
- (#312) FENTON Mixed
- (#415) FIZO CYCLING Masters Men
- (#327) TEAM PHENOMENAL HOPE Mixed
- (#442) TEAM KT-26 Masters Men
- (#634) THE WHIPPETS Grand Masters Men
- (#144) THE HIPPY & THE GYPPY Open Men
- (#142) THAT'S THE RHYTHM Open Men
- (#632) THE BEAVERTOWN BOYS Grand Masters Men
- (#427) OAMARU HONDA Masters Men
- (#506) NORTH TO SOUTH Masters Women
- (#439) SYED & JUAN MTB TEAM Masters Men
- (#435) SHIMANO Masters Men
- (#432) RIVET RACING Masters Men
- (#453) WALTER AND STATLER Masters Men